sensor_id;sensor_type;location;lat;lon;timestamp;pressure;altitude;pressure_sealevel;temperature;humidity
25638;BME280;13496;51.040;13.680;2023-10-13T00:01:31;99682.34;;;20.84;50.69
25638;BME280;13496;51.040;13.680;2023-10-13T00:06:33;99676.47;;;20.82;50.46
25638;BME280;13496;51.040;13.680;2023-10-13T00:11:53;99677.50;;;20.81;50.61
25638;BME280;13496;51.040;13.680;2023-10-13T00:16:56;99681.53;;;20.83;50.62
25638;BME280;13496;51.040;13.680;2023-10-13T00:22:09;99676.47;;;20.82;50.70
25638;BME280;13496;51.040;13.680;2023-10-13T00:27:17;99683.34;;;20.83;50.21
25638;BME280;13496;51.040;13.680;2023-10-13T00:32:34;99673.84;;;20.82;50.62
25638;BME280;13496;51.040;13.680;2023-10-13T00:37:39;99680.72;;;20.83;50.52
25638;BME280;13496;51.040;13.680;2023-10-13T00:42:45;99680.31;;;20.79;50.82
25638;BME280;13496;51.040;13.680;2023-10-13T00:47:53;99689.84;;;20.80;50.79
25638;BME280;13496;51.040;13.680;2023-10-13T00:52:59;99679.09;;;20.82;50.33
25638;BME280;13496;51.040;13.680;2023-10-13T00:58:02;99685.59;;;20.79;50.75
25638;BME280;13496;51.040;13.680;2023-10-13T01:03:04;99688.22;;;20.79;50.37
25638;BME280;13496;51.040;13.680;2023-10-13T01:08:08;99682.78;;;20.81;50.54
25638;BME280;13496;51.040;13.680;2023-10-13T01:13:13;99677.91;;;20.77;50.58
25638;BME280;13496;51.040;13.680;2023-10-13T01:18:16;99685.00;;;20.77;50.81
25638;BME280;13496;51.040;13.680;2023-10-13T01:23:18;99688.22;;;20.79;51.03
25638;BME280;13496;51.040;13.680;2023-10-13T01:28:20;99683.16;;;20.77;50.76
25638;BME280;13496;51.040;13.680;2023-10-13T01:33:23;99685.81;;;20.77;50.63
25638;BME280;13496;51.040;13.680;2023-10-13T01:38:28;99683.97;;;20.78;50.35
25638;BME280;13496;51.040;13.680;2023-10-13T01:43:34;99686.84;;;20.76;50.59
25638;BME280;13496;51.040;13.680;2023-10-13T01:48:36;99690.28;;;20.77;50.58
25638;BME280;13496;51.040;13.680;2023-10-13T01:53:41;99690.28;;;20.77;50.72
25638;BME280;13496;51.040;13.680;2023-10-13T01:58:43;99686.00;;;20.76;50.57
25638;BME280;13496;51.040;13.680;2023-10-13T02:03:49;99684.38;;;20.75;50.37
25638;BME280;13496;51.040;13.680;2023-10-13T02:08:53;99689.88;;;20.73;50.57
25638;BME280;13496;51.040;13.680;2023-10-13T02:13:58;99682.78;;;20.74;50.56
25638;BME280;13496;51.040;13.680;2023-10-13T02:19:01;99686.22;;;20.74;50.35
25638;BME280;13496;51.040;13.680;2023-10-13T02:24:07;99678.31;;;20.74;50.71
25638;BME280;13496;51.040;13.680;2023-10-13T02:29:14;99678.69;;;20.71;50.58
25638;BME280;13496;51.040;13.680;2023-10-13T02:34:19;99674.03;;;20.73;50.58
25638;BME280;13496;51.040;13.680;2023-10-13T02:39:21;99655.19;;;20.76;50.47
25638;BME280;13496;51.040;13.680;2023-10-13T02:44:27;99646.66;;;20.74;50.74
25638;BME280;13496;51.040;13.680;2023-10-13T02:49:30;99652.94;;;20.73;50.35
25638;BME280;13496;51.040;13.680;2023-10-13T02:54:42;99646.47;;;20.69;50.67
25638;BME280;13496;51.040;13.680;2023-10-13T02:59:52;99638.13;;;20.72;50.91
25638;BME280;13496;51.040;13.680;2023-10-13T03:05:02;99646.66;;;20.74;50.75
25638;BME280;13496;51.040;13.680;2023-10-13T03:10:13;99642.81;;;20.70;50.54
25638;BME280;13496;51.040;13.680;2023-10-13T03:15:18;99642.59;;;20.72;50.65
25638;BME280;13496;51.040;13.680;2023-10-13T03:20:21;99649.28;;;20.74;50.50
25638;BME280;13496;51.040;13.680;2023-10-13T03:25:30;99643.41;;;20.72;50.86
25638;BME280;13496;51.040;13.680;2023-10-13T03:30:44;99604.47;;;20.74;50.83
25638;BME280;13496;51.040;13.680;2023-10-13T03:35:45;99604.88;;;20.78;50.73
25638;BME280;13496;51.040;13.680;2023-10-13T03:40:54;99599.19;;;20.74;50.55
25638;BME280;13496;51.040;13.680;2023-10-13T03:46:21;99593.53;;;20.71;50.90
25638;BME280;13496;51.040;13.680;2023-10-13T03:51:23;99596.97;;;20.71;50.96
25638;BME280;13496;51.040;13.680;2023-10-13T03:56:32;99595.34;;;20.70;51.06
25638;BME280;13496;51.040;13.680;2023-10-13T04:01:43;99582.56;;;20.74;50.97
25638;BME280;13496;51.040;13.680;2023-10-13T04:06:47;99591.50;;;20.73;50.63
25638;BME280;13496;51.040;13.680;2023-10-13T04:11:49;99584.41;;;20.73;51.07
25638;BME280;13496;51.040;13.680;2023-10-13T04:17:10;99580.13;;;20.72;51.03
25638;BME280;13496;51.040;13.680;2023-10-13T04:22:15;99584.81;;;20.70;51.03
25638;BME280;13496;51.040;13.680;2023-10-13T04:27:22;99576.69;;;20.72;51.09
25638;BME280;13496;51.040;13.680;2023-10-13T04:32:40;99573.25;;;20.71;50.88
25638;BME280;13496;51.040;13.680;2023-10-13T04:38:05;99565.94;;;20.73;50.81
25638;BME280;13496;51.040;13.680;2023-10-13T04:43:20;99552.94;;;20.72;50.80
25638;BME280;13496;51.040;13.680;2023-10-13T04:48:34;99563.50;;;20.72;50.86
25638;BME280;13496;51.040;13.680;2023-10-13T04:53:40;99563.50;;;20.72;50.62
25638;BME280;13496;51.040;13.680;2023-10-13T04:59:01;99563.50;;;20.72;50.63
25638;BME280;13496;51.040;13.680;2023-10-13T05:04:22;99559.88;;;20.73;51.09
25638;BME280;13496;51.040;13.680;2023-10-13T05:09:31;99555.41;;;20.73;51.12
25638;BME280;13496;51.040;13.680;2023-10-13T05:15:11;99552.94;;;20.72;50.52
25638;BME280;13496;51.040;13.680;2023-10-13T05:20:31;99561.66;;;20.72;50.59
25638;BME280;13496;51.040;13.680;2023-10-13T05:26:10;99557.00;;;20.74;50.84
25638;BME280;13496;51.040;13.680;2023-10-13T05:31:30;99565.16;;;20.73;50.86
25638;BME280;13496;51.040;13.680;2023-10-13T05:36:51;99572.03;;;20.74;50.59
25638;BME280;13496;51.040;13.680;2023-10-13T05:42:29;99582.56;;;20.74;50.81
25638;BME280;13496;51.040;13.680;2023-10-13T05:47:50;99590.25;;;20.75;50.57
25638;BME280;13496;51.040;13.680;2023-10-13T05:53:05;99593.53;;;20.77;50.63
25638;BME280;13496;51.040;13.680;2023-10-13T05:58:10;99585.59;;;20.77;50.73
25638;BME280;13496;51.040;13.680;2023-10-13T06:03:31;99584.59;;;20.78;50.73
25638;BME280;13496;51.040;13.680;2023-10-13T06:08:51;99598.78;;;20.77;50.68
25638;BME280;13496;51.040;13.680;2023-10-13T06:14:11;99597.75;;;20.78;50.52
25638;BME280;13496;51.040;13.680;2023-10-13T06:19:31;99603.03;;;20.78;50.65
25638;BME280;13496;51.040;13.680;2023-10-13T06:24:51;99598.56;;;20.79;50.65
25638;BME280;13496;51.040;13.680;2023-10-13T06:30:11;99608.09;;;20.80;50.83
25638;BME280;13496;51.040;13.680;2023-10-13T06:35:14;99603.66;;;20.81;50.78
25638;BME280;13496;51.040;13.680;2023-10-13T06:40:24;99591.06;;;20.83;50.68
25638;BME280;13496;51.040;13.680;2023-10-13T06:45:32;99595.13;;;20.85;50.45
25638;BME280;13496;51.040;13.680;2023-10-13T06:50:37;99583.78;;;20.85;50.41
25638;BME280;13496;51.040;13.680;2023-10-13T06:55:43;99591.28;;;20.88;50.66
25638;BME280;13496;51.040;13.680;2023-10-13T07:00:48;99589.84;;;20.92;50.34
25638;BME280;13496;51.040;13.680;2023-10-13T07:05:56;99595.13;;;20.92;50.36
25638;BME280;13496;51.040;13.680;2023-10-13T07:11:00;99585.75;;;20.96;50.15
25638;BME280;13496;51.040;13.680;2023-10-13T07:16:09;99578.44;;;20.98;50.36
25638;BME280;13496;51.040;13.680;2023-10-13T07:21:14;99590.81;;;20.97;50.15
25638;BME280;13496;51.040;13.680;2023-10-13T07:26:16;99584.75;;;20.97;50.25
25638;BME280;13496;51.040;13.680;2023-10-13T07:31:17;99585.34;;;20.99;50.11
25638;BME280;13496;51.040;13.680;2023-10-13T07:36:22;99575.38;;;21.01;50.44
25638;BME280;13496;51.040;13.680;2023-10-13T07:41:34;99568.91;;;21.03;50.00
25638;BME280;13496;51.040;13.680;2023-10-13T07:46:40;99571.13;;;21.07;49.93
25638;BME280;13496;51.040;13.680;2023-10-13T07:51:41;99565.41;;;21.10;50.17
25638;BME280;13496;51.040;13.680;2023-10-13T07:56:46;99555.06;;;21.08;49.99
25638;BME280;13496;51.040;13.680;2023-10-13T08:01:48;99535.97;;;21.13;49.86
25638;BME280;13496;51.040;13.680;2023-10-13T08:07:10;99535.78;;;21.14;49.64
25638;BME280;13496;51.040;13.680;2023-10-13T08:12:14;99531.09;;;21.16;49.77
25638;BME280;13496;51.040;13.680;2023-10-13T08:17:24;99528.03;;;21.19;49.92
25638;BME280;13496;51.040;13.680;2023-10-13T08:22:32;99533.72;;;21.16;49.92
25638;BME280;13496;51.040;13.680;2023-10-13T08:27:40;99535.16;;;21.19;49.90
25638;BME280;13496;51.040;13.680;2023-10-13T08:32:51;99534.91;;;21.20;49.97
25638;BME280;13496;51.040;13.680;2023-10-13T08:37:56;99514.19;;;21.24;49.85
25638;BME280;13496;51.040;13.680;2023-10-13T08:43:02;99515.63;;;21.26;49.77
25638;BME280;13496;51.040;13.680;2023-10-13T08:48:08;99517.41;;;21.33;49.78
25638;BME280;13496;51.040;13.680;2023-10-13T08:53:19;99517.84;;;21.36;49.54
25638;BME280;13496;51.040;13.680;2023-10-13T08:58:34;99516.41;;;21.34;49.87
25638;BME280;13496;51.040;13.680;2023-10-13T09:03:57;99503.22;;;21.34;49.83
25638;BME280;13496;51.040;13.680;2023-10-13T09:09:19;99516.81;;;21.31;49.72
25638;BME280;13496;51.040;13.680;2023-10-13T09:14:42;99514.59;;;21.34;49.95
25638;BME280;13496;51.040;13.680;2023-10-13T09:19:49;99501.19;;;21.29;49.63
25638;BME280;13496;51.040;13.680;2023-10-13T09:25:00;99495.88;;;21.36;49.74
25638;BME280;13496;51.040;13.680;2023-10-13T09:30:03;99491.84;;;21.40;49.67
25638;BME280;13496;51.040;13.680;2023-10-13T09:35:17;99476.97;;;21.45;49.74
25638;BME280;13496;51.040;13.680;2023-10-13T09:40:20;99480.63;;;21.44;49.65
25638;BME280;13496;51.040;13.680;2023-10-13T09:45:43;99487.09;;;21.48;49.37
25638;BME280;13496;51.040;13.680;2023-10-13T09:50:53;99482.47;;;21.44;49.84
25638;BME280;13496;51.040;13.680;2023-10-13T09:56:14;99486.09;;;21.43;49.51
25638;BME280;13496;51.040;13.680;2023-10-13T10:01:27;99468.06;;;21.40;49.97
25638;BME280;13496;51.040;13.680;2023-10-13T10:06:39;99470.25;;;21.43;49.71
25638;BME280;13496;51.040;13.680;2023-10-13T10:11:53;99460.75;;;21.42;49.98
25638;BME280;13496;51.040;13.680;2023-10-13T10:17:07;99452.41;;;21.45;49.54
25638;BME280;13496;51.040;13.680;2023-10-13T10:22:09;99448.16;;;21.44;49.68
25638;BME280;13496;51.040;13.680;2023-10-13T10:27:30;99446.31;;;21.44;49.73
25638;BME280;13496;51.040;13.680;2023-10-13T10:32:38;99437.38;;;21.45;49.60
25638;BME280;13496;51.040;13.680;2023-10-13T10:37:44;99438.16;;;21.46;49.96
25638;BME280;13496;51.040;13.680;2023-10-13T10:42:51;99423.97;;;21.47;49.70
25638;BME280;13496;51.040;13.680;2023-10-13T10:47:54;99422.34;;;21.46;49.85
25638;BME280;13496;51.040;13.680;2023-10-13T10:53:00;99407.25;;;21.53;49.90
25638;BME280;13496;51.040;13.680;2023-10-13T10:58:02;99397.72;;;21.52;49.76
25638;BME280;13496;51.040;13.680;2023-10-13T11:03:07;99402.16;;;21.58;49.58
25638;BME280;13496;51.040;13.680;2023-10-13T11:08:26;99401.31;;;21.58;49.52
25638;BME280;13496;51.040;13.680;2023-10-13T11:13:45;99388.28;;;21.63;49.48
25638;BME280;13496;51.040;13.680;2023-10-13T11:19:04;99367.75;;;21.65;49.54
25638;BME280;13496;51.040;13.680;2023-10-13T11:24:07;99383.22;;;21.61;49.53
25638;BME280;13496;51.040;13.680;2023-10-13T11:29:13;99374.28;;;21.62;49.57
25638;BME280;13496;51.040;13.680;2023-10-13T11:34:14;99367.97;;;21.63;49.59
25638;BME280;13496;51.040;13.680;2023-10-13T11:39:19;99357.19;;;21.65;49.64
25638;BME280;13496;51.040;13.680;2023-10-13T11:44:26;99360.00;;;21.70;49.23
25638;BME280;13496;51.040;13.680;2023-10-13T11:49:32;99359.41;;;21.68;49.62
25638;BME280;13496;51.040;13.680;2023-10-13T11:54:36;99353.53;;;21.66;49.54
25638;BME280;13496;51.040;13.680;2023-10-13T11:59:43;99344.22;;;21.63;49.22
25638;BME280;13496;51.040;13.680;2023-10-13T12:04:57;99326.09;;;21.67;49.49
25638;BME280;13496;51.040;13.680;2023-10-13T12:10:00;99304.75;;;21.68;49.53
25638;BME280;13496;51.040;13.680;2023-10-13T12:15:02;99304.59;;;21.63;49.58
25638;BME280;13496;51.040;13.680;2023-10-13T12:20:11;99309.47;;;21.66;49.46
25638;BME280;13496;51.040;13.680;2023-10-13T12:25:19;99306.38;;;21.69;49.38
25638;BME280;13496;51.040;13.680;2023-10-13T12:30:27;99301.53;;;21.66;49.54
25638;BME280;13496;51.040;13.680;2023-10-13T12:41:18;99275.94;;;21.67;49.61
25638;BME280;13496;51.040;13.680;2023-10-13T12:46:38;99276.31;;;21.70;49.34
25638;BME280;13496;51.040;13.680;2023-10-13T12:52:03;99277.91;;;21.71;49.21
25638;BME280;13496;51.040;13.680;2023-10-13T12:57:05;99265.50;;;21.72;49.63
25638;BME280;13496;51.040;13.680;2023-10-13T13:02:10;99263.69;;;21.72;49.52
25638;BME280;13496;51.040;13.680;2023-10-13T13:07:16;99243.28;;;21.80;49.46
25638;BME280;13496;51.040;13.680;2023-10-13T13:12:18;99236.41;;;21.79;49.34
25638;BME280;13496;51.040;13.680;2023-10-13T13:17:21;99231.25;;;21.84;49.15
25638;BME280;13496;51.040;13.680;2023-10-13T13:22:23;99228.16;;;21.87;49.26
25638;BME280;13496;51.040;13.680;2023-10-13T13:27:24;99223.47;;;21.89;49.03
25638;BME280;13496;51.040;13.680;2023-10-13T13:32:26;99205.00;;;21.89;49.29
25638;BME280;13496;51.040;13.680;2023-10-13T13:37:34;99202.91;;;21.91;49.01
25638;BME280;13496;51.040;13.680;2023-10-13T13:42:35;99196.38;;;21.93;48.90
25638;BME280;13496;51.040;13.680;2023-10-13T13:47:38;99185.38;;;21.96;49.13
25638;BME280;13496;51.040;13.680;2023-10-13T13:52:40;99177.22;;;21.98;48.77
25638;BME280;13496;51.040;13.680;2023-10-13T13:57:47;99163.81;;;21.99;49.05
25638;BME280;13496;51.040;13.680;2023-10-13T14:02:51;99157.25;;;22.02;48.87
25638;BME280;13496;51.040;13.680;2023-10-13T14:07:54;99147.25;;;21.92;49.16
25638;BME280;13496;51.040;13.680;2023-10-13T14:13:00;99148.84;;;21.93;49.07
25638;BME280;13496;51.040;13.680;2023-10-13T14:18:08;99140.69;;;21.95;48.82
25638;BME280;13496;51.040;13.680;2023-10-13T14:23:16;99135.03;;;21.91;48.81
25638;BME280;13496;51.040;13.680;2023-10-13T14:28:17;99138.50;;;21.92;49.16
25638;BME280;13496;51.040;13.680;2023-10-13T14:33:19;99142.75;;;21.93;49.22
25638;BME280;13496;51.040;13.680;2023-10-13T14:38:23;99136.31;;;21.89;48.91
25638;BME280;13496;51.040;13.680;2023-10-13T14:43:24;99123.22;;;21.94;49.25
25638;BME280;13496;51.040;13.680;2023-10-13T14:48:29;99114.97;;;22.02;48.97
25638;BME280;13496;51.040;13.680;2023-10-13T14:53:32;99106.03;;;22.03;48.89
25638;BME280;13496;51.040;13.680;2023-10-13T14:58:33;99110.53;;;22.03;49.07
25638;BME280;13496;51.040;13.680;2023-10-13T15:03:35;99110.16;;;21.99;48.91
25638;BME280;13496;51.040;13.680;2023-10-13T15:08:39;99105.91;;;21.98;49.12
25638;BME280;13496;51.040;13.680;2023-10-13T15:13:47;99109.56;;;21.97;49.59
25638;BME280;13496;51.040;13.680;2023-10-13T15:18:52;99113.81;;;21.98;49.37
25638;BME280;13496;51.040;13.680;2023-10-13T15:23:54;99108.78;;;21.96;49.50
25638;BME280;13496;51.040;13.680;2023-10-13T15:29:03;99104.06;;;21.98;49.45
25638;BME280;13496;51.040;13.680;2023-10-13T15:34:12;99105.91;;;21.98;49.57
25638;BME280;13496;51.040;13.680;2023-10-13T15:39:16;99104.88;;;21.99;49.28
25638;BME280;13496;51.040;13.680;2023-10-13T15:44:25;99094.88;;;22.01;49.23
25638;BME280;13496;51.040;13.680;2023-10-13T15:49:33;99091.09;;;21.97;49.46
25638;BME280;13496;51.040;13.680;2023-10-13T15:54:35;99089.03;;;21.99;49.37
25638;BME280;13496;51.040;13.680;2023-10-13T15:59:37;99089.59;;;22.01;49.29
25638;BME280;13496;51.040;13.680;2023-10-13T16:04:39;99086.97;;;22.01;49.35
25638;BME280;13496;51.040;13.680;2023-10-13T16:09:41;99085.34;;;22.00;49.13
25638;BME280;13496;51.040;13.680;2023-10-13T16:14:47;99085.81;;;21.97;49.40
25638;BME280;13496;51.040;13.680;2023-10-13T16:19:49;99080.53;;;21.97;49.31
25638;BME280;13496;51.040;13.680;2023-10-13T16:24:52;99083.16;;;21.97;49.49
25638;BME280;13496;51.040;13.680;2023-10-13T16:29:53;99078.91;;;21.96;49.43
25638;BME280;13496;51.040;13.680;2023-10-13T16:34:56;99073.63;;;21.96;49.68
25638;BME280;13496;51.040;13.680;2023-10-13T16:39:59;99083.59;;;21.94;49.41
25638;BME280;13496;51.040;13.680;2023-10-13T16:45:06;99079.38;;;21.93;49.57
25638;BME280;13496;51.040;13.680;2023-10-13T16:50:21;99082.00;;;21.93;49.61
25638;BME280;13496;51.040;13.680;2023-10-13T16:55:23;99075.13;;;21.92;49.73
25638;BME280;13496;51.040;13.680;2023-10-13T17:00:25;99076.13;;;21.91;49.73
25638;BME280;13496;51.040;13.680;2023-10-13T17:05:27;99065.56;;;21.91;49.67
25638;BME280;13496;51.040;13.680;2023-10-13T17:10:32;99063.72;;;21.91;49.68
25638;BME280;13496;51.040;13.680;2023-10-13T17:15:34;99059.47;;;21.90;49.63
25638;BME280;13496;51.040;13.680;2023-10-13T17:20:38;99047.88;;;21.91;49.88
25638;BME280;13496;51.040;13.680;2023-10-13T17:25:40;99055.59;;;21.93;49.68
25638;BME280;13496;51.040;13.680;2023-10-13T17:30:42;99048.13;;;21.90;49.74
25638;BME280;13496;51.040;13.680;2023-10-13T17:35:46;99049.72;;;21.91;49.67
25638;BME280;13496;51.040;13.680;2023-10-13T17:40:48;99047.31;;;21.89;49.71
25638;BME280;13496;51.040;13.680;2023-10-13T17:45:50;99041.22;;;21.89;49.43
25638;BME280;13496;51.040;13.680;2023-10-13T17:50:52;99040.44;;;21.88;49.76
25638;BME280;13496;51.040;13.680;2023-10-13T17:55:53;99041.22;;;21.89;49.46
25638;BME280;13496;51.040;13.680;2023-10-13T18:00:55;99034.13;;;21.89;49.27
25638;BME280;13496;51.040;13.680;2023-10-13T18:05:58;99028.25;;;21.87;49.49
25638;BME280;13496;51.040;13.680;2023-10-13T18:11:00;99026.63;;;21.86;49.60
25638;BME280;13496;51.040;13.680;2023-10-13T18:16:14;99017.13;;;21.85;49.66
25638;BME280;13496;51.040;13.680;2023-10-13T18:21:16;99009.63;;;21.82;49.67
25638;BME280;13496;51.040;13.680;2023-10-13T18:26:19;99002.88;;;21.86;49.30
25638;BME280;13496;51.040;13.680;2023-10-13T18:31:21;98988.88;;;21.86;49.67
25638;BME280;13496;51.040;13.680;2023-10-13T18:36:24;98986.22;;;21.86;49.24
25638;BME280;13496;51.040;13.680;2023-10-13T18:41:29;98980.34;;;21.84;49.26
25638;BME280;13496;51.040;13.680;2023-10-13T18:46:32;98976.91;;;21.83;49.65
25638;BME280;13496;51.040;13.680;2023-10-13T18:51:33;98974.06;;;21.85;49.34
25638;BME280;13496;51.040;13.680;2023-10-13T18:56:35;98969.78;;;21.84;49.49
25638;BME280;13496;51.040;13.680;2023-10-13T19:01:37;98963.94;;;21.82;49.07
25638;BME280;13496;51.040;13.680;2023-10-13T19:06:41;98973.47;;;21.83;49.17
25638;BME280;13496;51.040;13.680;2023-10-13T19:11:43;98973.47;;;21.83;49.60
25638;BME280;13496;51.040;13.680;2023-10-13T19:16:47;98967.63;;;21.81;49.36
25638;BME280;13496;51.040;13.680;2023-10-13T19:21:49;98966.59;;;21.82;49.48
25638;BME280;13496;51.040;13.680;2023-10-13T19:26:50;98962.56;;;21.79;49.44
25638;BME280;13496;51.040;13.680;2023-10-13T19:31:55;98955.44;;;21.80;49.43
25638;BME280;13496;51.040;13.680;2023-10-13T19:36:57;98954.06;;;21.77;49.83
25638;BME280;13496;51.040;13.680;2023-10-13T19:42:05;98950.59;;;21.77;49.01
25638;BME280;13496;51.040;13.680;2023-10-13T19:47:08;98939.03;;;21.78;48.88
25638;BME280;13496;51.040;13.680;2023-10-13T19:52:15;98936.59;;;21.76;49.45
25638;BME280;13496;51.040;13.680;2023-10-13T19:57:19;98922.84;;;21.74;49.31
25638;BME280;13496;51.040;13.680;2023-10-13T20:02:20;98923.88;;;21.73;49.15
25638;BME280;13496;51.040;13.680;2023-10-13T20:07:23;98916.75;;;21.73;49.13
25638;BME280;13496;51.040;13.680;2023-10-13T20:12:25;98909.84;;;21.72;49.00
25638;BME280;13496;51.040;13.680;2023-10-13T20:17:26;98909.41;;;21.75;48.72
25638;BME280;13496;51.040;13.680;2023-10-13T20:22:31;98898.63;;;21.77;48.73
25638;BME280;13496;51.040;13.680;2023-10-13T20:27:33;98895.16;;;21.77;48.83
25638;BME280;13496;51.040;13.680;2023-10-13T20:32:35;98893.56;;;21.75;48.90
25638;BME280;13496;51.040;13.680;2023-10-13T20:37:37;98878.50;;;21.76;48.94
25638;BME280;13496;51.040;13.680;2023-10-13T20:42:43;98873.22;;;21.76;48.91
25638;BME280;13496;51.040;13.680;2023-10-13T20:47:45;98873.47;;;21.74;48.57
25638;BME280;13496;51.040;13.680;2023-10-13T20:52:48;98864.97;;;21.72;49.09
25638;BME280;13496;51.040;13.680;2023-10-13T20:57:54;98857.53;;;21.69;48.62
25638;BME280;13496;51.040;13.680;2023-10-13T21:02:56;98852.00;;;21.71;48.90
25638;BME280;13496;51.040;13.680;2023-10-13T21:08:00;98851.22;;;21.70;48.56
25638;BME280;13496;51.040;13.680;2023-10-13T21:13:03;98839.59;;;21.71;48.58
25638;BME280;13496;51.040;13.680;2023-10-13T21:18:05;98824.00;;;21.70;48.45
25638;BME280;13496;51.040;13.680;2023-10-13T21:23:09;98813.44;;;21.70;48.48
25638;BME280;13496;51.040;13.680;2023-10-13T21:28:12;98802.88;;;21.70;48.56
25638;BME280;13496;51.040;13.680;2023-10-13T21:33:14;98797.81;;;21.68;48.37
25638;BME280;13496;51.040;13.680;2023-10-13T21:38:18;98786.25;;;21.69;48.46
25638;BME280;13496;51.040;13.680;2023-10-13T21:43:20;98786.81;;;21.71;48.05
25638;BME280;13496;51.040;13.680;2023-10-13T21:48:21;98778.31;;;21.69;47.84
25638;BME280;13496;51.040;13.680;2023-10-13T21:53:24;98772.22;;;21.69;47.62
25638;BME280;13496;51.040;13.680;2023-10-13T21:58:26;98757.22;;;21.69;48.01
25638;BME280;13496;51.040;13.680;2023-10-13T22:03:28;98743.41;;;21.67;47.36
25638;BME280;13496;51.040;13.680;2023-10-13T22:08:31;98732.84;;;21.67;47.45
25638;BME280;13496;51.040;13.680;2023-10-13T22:13:32;98738.13;;;21.67;47.50
25638;BME280;13496;51.040;13.680;2023-10-13T22:18:38;98739.19;;;21.66;47.65
25638;BME280;13496;51.040;13.680;2023-10-13T22:23:42;98734.47;;;21.68;47.18
25638;BME280;13496;51.040;13.680;2023-10-13T22:28:46;98730.81;;;21.69;47.00
25638;BME280;13496;51.040;13.680;2023-10-13T22:33:49;98726.53;;;21.68;47.46
25638;BME280;13496;51.040;13.680;2023-10-13T22:38:56;98723.09;;;21.68;47.27
25638;BME280;13496;51.040;13.680;2023-10-13T22:43:59;98726.78;;;21.67;47.37
25638;BME280;13496;51.040;13.680;2023-10-13T22:49:01;98729.19;;;21.68;47.36
25638;BME280;13496;51.040;13.680;2023-10-13T22:54:03;98716.44;;;21.65;47.45
25638;BME280;13496;51.040;13.680;2023-10-13T22:59:07;98722.53;;;21.66;47.22
25638;BME280;13496;51.040;13.680;2023-10-13T23:04:13;98706.91;;;21.64;47.37
25638;BME280;13496;51.040;13.680;2023-10-13T23:09:18;98713.34;;;21.68;47.21
25638;BME280;13496;51.040;13.680;2023-10-13T23:14:26;98703.81;;;21.67;47.63
25638;BME280;13496;51.040;13.680;2023-10-13T23:19:28;98689.81;;;21.67;47.49
25638;BME280;13496;51.040;13.680;2023-10-13T23:24:36;98677.66;;;21.66;47.47
25638;BME280;13496;51.040;13.680;2023-10-13T23:29:38;98667.91;;;21.66;47.50
25638;BME280;13496;51.040;13.680;2023-10-13T23:34:40;98674.78;;;21.67;47.84
25638;BME280;13496;51.040;13.680;2023-10-13T23:39:42;98661.00;;;21.65;47.56
25638;BME280;13496;51.040;13.680;2023-10-13T23:44:45;98661.00;;;21.65;46.93
25638;BME280;13496;51.040;13.680;2023-10-13T23:49:48;98664.22;;;21.67;47.30
25638;BME280;13496;51.040;13.680;2023-10-13T23:54:50;98648.38;;;21.67;47.56
25638;BME280;13496;51.040;13.680;2023-10-13T23:59:55;98648.03;;;21.64;47.56
